Time;durP1;ratioP1;P1;durP2;ratioP2;P2;SDS_P1;SDS_P2;PMS_P1;PMS_P2;Temp;Humidity;BMP_temperature;BMP_pressure;BME280_temperature;BME280_humidity;BME280_pressure;Samples;Min_cycle;Max_cycle;Signal;HPM_P1;HPM_P2
2021/06/24 00:00:44;;;;;;;12.83;10.90;;;;;;;;;;4992199;28;20464;-50
2021/06/24 00:03:10;;;;;;;16.67;11.20;;;;;;;;;;4991713;28;20447;-52
2021/06/24 00:05:36;;;;;;;15.13;11.70;;;;;;;;;;4992387;28;20385;-52
2021/06/24 00:08:03;;;;;;;12.50;10.93;;;;;;;;;;4992324;28;20474;-50
2021/06/24 00:10:29;;;;;;;14.00;10.60;;;;;;;;;;4992249;28;20375;-52
2021/06/24 00:12:55;;;;;;;12.57;10.60;;;;;;;;;;4992229;28;20846;-52
2021/06/24 00:15:21;;;;;;;14.80;12.67;;;;;;;;;;4992475;28;20431;-52
2021/06/24 00:17:47;;;;;;;13.37;10.30;;;;;;;;;;4992574;28;20495;-51
2021/06/24 00:20:13;;;;;;;13.87;11.70;;;;;;;;;;4992096;28;20893;-51
2021/06/24 00:22:39;;;;;;;13.47;10.87;;;;;;;;;;4991478;28;20406;-51
2021/06/24 00:25:06;;;;;;;16.00;11.97;;;;;;;;;;4992159;28;20418;-51
2021/06/24 00:27:32;;;;;;;11.90;10.70;;;;;;;;;;4991931;28;20379;-51
2021/06/24 00:29:57;;;;;;;18.27;11.87;;;;;;;;;;4992140;28;20458;-51
2021/06/24 00:32:23;;;;;;;21.33;11.67;;;;;;;;;;4991763;28;20431;-52
2021/06/24 00:34:49;;;;;;;13.70;12.30;;;;;;;;;;4992049;28;20379;-50
2021/06/24 00:37:15;;;;;;;14.70;11.87;;;;;;;;;;4991574;28;21010;-51
2021/06/24 00:39:41;;;;;;;13.20;11.50;;;;;;;;;;4991963;28;20467;-51
2021/06/24 00:42:07;;;;;;;17.37;12.03;;;;;;;;;;4991773;28;20423;-52
2021/06/24 00:44:33;;;;;;;16.60;11.73;;;;;;;;;;4991924;28;20381;-52
2021/06/24 00:47:00;;;;;;;12.87;11.37;;;;;;;;;;4991594;28;20405;-51
2021/06/24 00:49:26;;;;;;;14.63;11.67;;;;;;;;;;4991935;28;20516;-51
2021/06/24 00:51:52;;;;;;;14.17;11.90;;;;;;;;;;4991669;28;21059;-51
2021/06/24 00:54:18;;;;;;;14.33;11.70;;;;;;;;;;4991840;28;20435;-51
2021/06/24 00:56:44;;;;;;;15.03;12.07;;;;;;;;;;4991695;28;20923;-51
2021/06/24 00:59:10;;;;;;;14.07;11.63;;;;;;;;;;4992024;28;20798;-51
2021/06/24 01:01:36;;;;;;;14.43;12.27;;;;;;;;;;4991445;28;20847;-51
2021/06/24 01:04:02;;;;;;;13.57;10.93;;;;;;;;;;4991364;28;20410;-50
2021/06/24 01:06:28;;;;;;;14.90;12.77;;;;;;;;;;4991432;28;20379;-50
2021/06/24 01:08:54;;;;;;;20.53;12.97;;;;;;;;;;4991728;28;20411;-51
2021/06/24 01:11:20;;;;;;;21.13;12.23;;;;;;;;;;4991671;28;20400;-51
2021/06/24 01:13:47;;;;;;;15.53;12.30;;;;;;;;;;4991282;28;20431;-51
2021/06/24 01:16:13;;;;;;;18.33;12.70;;;;;;;;;;4991457;28;20946;-51
2021/06/24 01:18:39;;;;;;;15.63;12.93;;;;;;;;;;4991492;28;20375;-51
2021/06/24 01:21:05;;;;;;;16.80;13.00;;;;;;;;;;4991397;28;20433;-51
2021/06/24 01:23:43;;;;;;;15.17;12.70;;;;;;;;;;4991351;28;20486;-51
2021/06/24 01:26:10;;;;;;;16.73;13.33;;;;;;;;;;4991348;28;20417;-51
2021/06/24 01:28:36;;;;;;;15.33;12.93;;;;;;;;;;4991439;28;20403;-50
2021/06/24 01:31:02;;;;;;;16.80;12.83;;;;;;;;;;4990826;28;20435;-50
2021/06/24 01:33:30;;;;;;;15.93;12.80;;;;;;;;;;4990879;28;20451;-50
2021/06/24 01:36:00;;;;;;;18.60;13.50;;;;;;;;;;4973622;28;20962;-50
2021/06/24 01:38:26;;;;;;;16.87;12.40;;;;;;;;;;4991168;28;20419;-50
2021/06/24 01:40:52;;;;;;;14.47;12.63;;;;;;;;;;4973714;28;20550;-52
2021/06/24 01:43:18;;;;;;;16.90;14.10;;;;;;;;;;4990952;28;20447;-53
2021/06/24 01:45:45;;;;;;;23.07;15.07;;;;;;;;;;4991262;28;20896;-52
2021/06/24 01:48:11;;;;;;;18.33;13.90;;;;;;;;;;4980365;28;20415;-49
2021/06/24 01:50:37;;;;;;;17.60;14.30;;;;;;;;;;4971743;28;20840;-50
2021/06/24 01:53:04;;;;;;;19.07;14.67;;;;;;;;;;4971475;28;20423;-50
2021/06/24 01:55:34;;;;;;;19.50;14.50;;;;;;;;;;4971607;28;20462;-50
2021/06/24 01:58:01;;;;;;;20.60;14.67;;;;;;;;;;4971519;28;20375;-52
2021/06/24 02:00:27;;;;;;;18.60;14.47;;;;;;;;;;4971421;28;20427;-50
2021/06/24 02:02:52;;;;;;;19.53;14.60;;;;;;;;;;4971397;28;20479;-49
2021/06/24 02:05:18;;;;;;;18.57;14.30;;;;;;;;;;4971535;28;20378;-49
2021/06/24 02:07:44;;;;;;;17.07;14.40;;;;;;;;;;4971361;28;20401;-50
2021/06/24 02:10:11;;;;;;;21.27;14.10;;;;;;;;;;4971438;28;20380;-49
2021/06/24 02:12:37;;;;;;;22.83;14.40;;;;;;;;;;4971428;28;20411;-50
2021/06/24 02:15:04;;;;;;;16.50;13.80;;;;;;;;;;4971424;28;20387;-50
2021/06/24 02:17:30;;;;;;;16.73;15.03;;;;;;;;;;4971282;28;20408;-50
2021/06/24 02:19:56;;;;;;;20.67;14.47;;;;;;;;;;4953918;28;20449;-50
2021/06/24 02:22:22;;;;;;;17.93;14.83;;;;;;;;;;4971318;28;20472;-51
2021/06/24 02:24:48;;;;;;;15.97;14.37;;;;;;;;;;4982272;28;20408;-51
2021/06/24 02:27:14;;;;;;;15.83;14.23;;;;;;;;;;4992854;28;20382;-49
2021/06/24 02:29:40;;;;;;;18.43;15.07;;;;;;;;;;4994345;28;21023;-49
2021/06/24 02:32:06;;;;;;;17.03;14.47;;;;;;;;;;4994193;28;20457;-49
2021/06/24 02:34:33;;;;;;;23.03;15.37;;;;;;;;;;4994081;28;20407;-49
2021/06/24 02:36:59;;;;;;;24.20;17.10;;;;;;;;;;4994013;28;20777;-50
2021/06/24 02:39:25;;;;;;;17.17;15.40;;;;;;;;;;4994017;28;20429;-50
2021/06/24 02:41:51;;;;;;;16.63;14.87;;;;;;;;;;4994157;28;20769;-50
2021/06/24 02:44:17;;;;;;;19.43;15.63;;;;;;;;;;4993936;28;20445;-50
2021/06/24 02:46:43;;;;;;;24.70;17.20;;;;;;;;;;4993913;28;20548;-51
2021/06/24 02:49:09;;;;;;;18.93;16.27;;;;;;;;;;4994114;28;20408;-50
2021/06/24 02:51:35;;;;;;;18.67;16.67;;;;;;;;;;4993901;28;20904;-52
2021/06/24 02:54:01;;;;;;;25.30;17.00;;;;;;;;;;4993857;28;20767;-52
2021/06/24 02:56:27;;;;;;;20.60;15.83;;;;;;;;;;4993695;28;20926;-49
2021/06/24 02:58:53;;;;;;;20.53;15.97;;;;;;;;;;4993910;28;20386;-49
2021/06/24 03:01:19;;;;;;;22.70;16.40;;;;;;;;;;4993820;28;20483;-49
2021/06/24 03:03:45;;;;;;;21.67;16.57;;;;;;;;;;4994188;28;20716;-49
2021/06/24 03:06:11;;;;;;;18.23;16.07;;;;;;;;;;4993633;28;20401;-49
2021/06/24 03:08:37;;;;;;;20.30;17.70;;;;;;;;;;4993840;28;20827;-49
2021/06/24 03:11:03;;;;;;;20.23;16.03;;;;;;;;;;4993644;28;20378;-49
2021/06/24 03:13:29;;;;;;;20.83;16.20;;;;;;;;;;4976344;28;20411;-50
2021/06/24 03:15:55;;;;;;;22.53;16.27;;;;;;;;;;4993206;28;20418;-49
2021/06/24 03:18:21;;;;;;;21.97;16.33;;;;;;;;;;4993523;28;20393;-50
2021/06/24 03:20:47;;;;;;;22.47;16.40;;;;;;;;;;4993381;28;20438;-50
2021/06/24 03:23:13;;;;;;;22.23;17.43;;;;;;;;;;4993329;28;20506;-51
2021/06/24 03:25:39;;;;;;;20.77;17.73;;;;;;;;;;4975356;28;20380;-49
2021/06/24 03:28:05;;;;;;;20.83;15.60;;;;;;;;;;4973673;28;20408;-52
2021/06/24 03:30:31;;;;;;;23.63;17.07;;;;;;;;;;4973661;28;20387;-52
2021/06/24 03:32:57;;;;;;;26.70;18.50;;;;;;;;;;4973662;28;20411;-50
2021/06/24 03:35:23;;;;;;;21.23;16.67;;;;;;;;;;4973644;28;20412;-50
2021/06/24 03:37:49;;;;;;;27.50;16.50;;;;;;;;;;4972518;28;20416;-50
2021/06/24 03:40:18;;;;;;;19.90;16.17;;;;;;;;;;4973573;28;20427;-50
2021/06/24 03:42:45;;;;;;;24.93;17.27;;;;;;;;;;4973317;28;20398;-52
2021/06/24 03:45:11;;;;;;;20.83;16.67;;;;;;;;;;4973497;28;20388;-49
2021/06/24 03:47:37;;;;;;;20.63;17.83;;;;;;;;;;4973204;28;20794;-50
2021/06/24 03:50:04;;;;;;;18.03;15.93;;;;;;;;;;4973541;28;20404;-49
2021/06/24 03:52:30;;;;;;;19.07;16.93;;;;;;;;;;4973065;28;20478;-51
2021/06/24 03:54:56;;;;;;;26.07;17.57;;;;;;;;;;4973453;28;20380;-49
2021/06/24 03:57:22;;;;;;;21.23;17.40;;;;;;;;;;4972986;28;20413;-49
2021/06/24 03:59:47;;;;;;;23.37;17.73;;;;;;;;;;4973185;28;20457;-49
2021/06/24 04:02:13;;;;;;;20.50;15.83;;;;;;;;;;4972991;28;20400;-50
2021/06/24 04:04:41;;;;;;;22.57;16.30;;;;;;;;;;4973327;28;20499;-50
2021/06/24 04:07:07;;;;;;;21.97;15.77;;;;;;;;;;4972821;28;20418;-50
2021/06/24 04:09:33;;;;;;;22.63;16.70;;;;;;;;;;4973133;28;20405;-50
2021/06/24 04:11:58;;;;;;;26.90;17.40;;;;;;;;;;4972801;28;20940;-51
2021/06/24 04:14:25;;;;;;;21.27;16.63;;;;;;;;;;4972901;28;20424;-52
2021/06/24 04:16:51;;;;;;;18.03;15.53;;;;;;;;;;4972724;28;20467;-51
2021/06/24 04:19:17;;;;;;;20.77;15.60;;;;;;;;;;4972936;28;21040;-50
2021/06/24 04:21:43;;;;;;;22.60;16.73;;;;;;;;;;4972782;28;20996;-52
2021/06/24 04:24:09;;;;;;;19.97;16.27;;;;;;;;;;4978586;28;20388;-52
2021/06/24 04:26:35;;;;;;;22.53;16.40;;;;;;;;;;4991888;28;20399;-52
2021/06/24 04:29:01;;;;;;;24.03;15.90;;;;;;;;;;4992203;28;20446;-50
2021/06/24 04:31:27;;;;;;;22.37;16.40;;;;;;;;;;4992008;28;20371;-52
2021/06/24 04:33:53;;;;;;;34.27;19.20;;;;;;;;;;4992150;28;20407;-49
2021/06/24 04:36:19;;;;;;;23.43;17.37;;;;;;;;;;4992039;28;20943;-50
2021/06/24 04:38:45;;;;;;;22.10;17.53;;;;;;;;;;4991956;28;20400;-49
2021/06/24 04:41:11;;;;;;;31.47;16.93;;;;;;;;;;4991956;28;20511;-50
2021/06/24 04:43:37;;;;;;;23.90;15.93;;;;;;;;;;4991957;28;20420;-49
2021/06/24 04:46:02;;;;;;;19.03;15.43;;;;;;;;;;4991967;28;20400;-50
2021/06/24 04:48:28;;;;;;;23.87;16.90;;;;;;;;;;4991814;28;20908;-50
2021/06/24 04:50:54;;;;;;;21.40;15.83;;;;;;;;;;4991630;28;20771;-50
2021/06/24 04:53:20;;;;;;;29.00;17.07;;;;;;;;;;4991441;28;20802;-52
2021/06/24 04:55:46;;;;;;;24.03;16.17;;;;;;;;;;4991706;28;20404;-52
2021/06/24 04:58:12;;;;;;;22.93;15.90;;;;;;;;;;4991407;28;20414;-52
2021/06/24 05:00:38;;;;;;;23.23;17.33;;;;;;;;;;4991674;28;20455;-50
2021/06/24 05:03:05;;;;;;;25.03;17.30;;;;;;;;;;4991384;28;20420;-51
2021/06/24 05:05:31;;;;;;;29.57;16.67;;;;;;;;;;4991629;28;20383;-51
2021/06/24 05:07:59;;;;;;;28.50;17.10;;;;;;;;;;4991226;28;20908;-50
2021/06/24 05:10:25;;;;;;;30.03;17.07;;;;;;;;;;4991502;28;20468;-52
2021/06/24 05:12:51;;;;;;;20.53;15.30;;;;;;;;;;4991210;28;20768;-52
2021/06/24 05:15:18;;;;;;;23.70;17.03;;;;;;;;;;4991443;28;20897;-50
2021/06/24 05:17:44;;;;;;;26.10;16.10;;;;;;;;;;4991199;28;20383;-50
2021/06/24 05:20:11;;;;;;;24.90;16.90;;;;;;;;;;4991369;28;20441;-49
2021/06/24 05:22:37;;;;;;;22.10;16.40;;;;;;;;;;4991126;28;20428;-51
2021/06/24 05:25:04;;;;;;;24.70;17.20;;;;;;;;;;4977650;28;20410;-52
2021/06/24 05:27:30;;;;;;;21.83;16.70;;;;;;;;;;4971820;28;20173;-49
2021/06/24 05:29:56;;;;;;;23.80;15.50;;;;;;;;;;4971870;28;20380;-50
2021/06/24 05:32:22;;;;;;;20.53;14.60;;;;;;;;;;4971766;28;20816;-50
2021/06/24 05:34:48;;;;;;;26.03;15.47;;;;;;;;;;4971804;28;20408;-50
2021/06/24 05:37:14;;;;;;;20.50;15.50;;;;;;;;;;4971711;28;20891;-50
2021/06/24 05:39:40;;;;;;;29.83;15.70;;;;;;;;;;4971584;28;20563;-52
2021/06/24 05:42:07;;;;;;;20.80;15.43;;;;;;;;;;4971753;28;20435;-53
2021/06/24 05:44:33;;;;;;;20.10;15.77;;;;;;;;;;4971630;28;20433;-50
2021/06/24 05:47:00;;;;;;;22.83;16.30;;;;;;;;;;4971599;28;20448;-50
2021/06/24 05:49:26;;;;;;;28.03;16.60;;;;;;;;;;4971748;28;20405;-50
2021/06/24 05:51:52;;;;;;;19.53;15.50;;;;;;;;;;4971612;28;20421;-50
2021/06/24 05:54:18;;;;;;;21.77;15.50;;;;;;;;;;4971467;28;20880;-50
2021/06/24 05:56:44;;;;;;;21.43;15.17;;;;;;;;;;4971598;28;20376;-50
2021/06/24 05:59:10;;;;;;;28.70;16.00;;;;;;;;;;4971524;28;20444;-50
2021/06/24 06:01:40;;;;;;;18.73;16.53;;;;;;;;;;4972933;28;20826;-50
2021/06/24 06:04:06;;;;;;;18.17;15.40;;;;;;;;;;4975273;28;20383;-49
2021/06/24 06:06:32;;;;;;;21.63;16.60;;;;;;;;;;4975167;28;20431;-50
2021/06/24 06:08:58;;;;;;;22.37;16.60;;;;;;;;;;4976211;28;20371;-51
2021/06/24 06:11:24;;;;;;;28.60;15.73;;;;;;;;;;4985908;28;20388;-50
2021/06/24 06:13:50;;;;;;;31.83;16.53;;;;;;;;;;4975052;28;20372;-52
2021/06/24 06:16:16;;;;;;;23.30;17.10;;;;;;;;;;4999176;28;20874;-52
2021/06/24 06:18:42;;;;;;;22.50;16.57;;;;;;;;;;4996465;28;20790;-52
2021/06/24 06:21:08;;;;;;;27.10;17.67;;;;;;;;;;5014031;28;20656;-52
2021/06/24 06:23:34;;;;;;;19.73;17.40;;;;;;;;;;5002013;28;20414;-52
2021/06/24 06:26:00;;;;;;;26.77;17.73;;;;;;;;;;4994265;28;21119;-50
2021/06/24 06:28:26;;;;;;;21.50;16.87;;;;;;;;;;4994718;28;21054;-50
2021/06/24 06:30:53;;;;;;;21.90;16.53;;;;;;;;;;4994523;28;20400;-50
2021/06/24 06:33:19;;;;;;;21.53;16.87;;;;;;;;;;4994538;28;20507;-50
2021/06/24 06:35:46;;;;;;;20.77;18.50;;;;;;;;;;4977072;28;20412;-50
2021/06/24 06:38:12;;;;;;;29.97;17.87;;;;;;;;;;4994450;28;20498;-50
2021/06/24 06:40:39;;;;;;;20.47;16.77;;;;;;;;;;4994172;28;20463;-50
2021/06/24 06:43:05;;;;;;;24.10;18.10;;;;;;;;;;4994303;28;20841;-51
2021/06/24 06:45:32;;;;;;;23.23;16.57;;;;;;;;;;4993928;28;20496;-54
2021/06/24 06:47:58;;;;;;;20.63;16.67;;;;;;;;;;4993907;28;20659;-52
2021/06/24 06:50:25;;;;;;;18.30;16.40;;;;;;;;;;4993820;28;20416;-52
2021/06/24 06:52:51;;;;;;;17.47;15.47;;;;;;;;;;4993746;28;20443;-53
2021/06/24 06:55:17;;;;;;;25.33;17.73;;;;;;;;;;4993784;28;20411;-51
2021/06/24 06:57:43;;;;;;;18.97;16.40;;;;;;;;;;4993703;28;20872;-52
2021/06/24 07:00:10;;;;;;;21.57;17.40;;;;;;;;;;4993621;28;20467;-51
2021/06/24 07:02:36;;;;;;;28.13;18.30;;;;;;;;;;4993641;28;20424;-49
2021/06/24 07:05:03;;;;;;;28.30;18.10;;;;;;;;;;4993847;28;20462;-50
2021/06/24 07:07:29;;;;;;;21.07;17.23;;;;;;;;;;4993694;28;20387;-50
2021/06/24 07:09:55;;;;;;;19.20;16.70;;;;;;;;;;4993679;28;21058;-50
2021/06/24 07:12:21;;;;;;;24.23;16.03;;;;;;;;;;4993162;28;20513;-49
2021/06/24 07:14:48;;;;;;;18.33;15.90;;;;;;;;;;4993527;28;20479;-52
2021/06/24 07:17:14;;;;;;;19.40;16.37;;;;;;;;;;4993123;28;20412;-50
2021/06/24 07:19:40;;;;;;;21.93;17.00;;;;;;;;;;4993356;28;20429;-50
2021/06/24 07:22:06;;;;;;;20.10;16.57;;;;;;;;;;4993192;28;20841;-50
2021/06/24 07:24:32;;;;;;;23.13;18.17;;;;;;;;;;4992219;28;20397;-50
2021/06/24 07:26:58;;;;;;;27.73;16.27;;;;;;;;;;4990877;28;20406;-50
2021/06/24 07:29:24;;;;;;;26.50;18.27;;;;;;;;;;4993257;28;20403;-50
2021/06/24 07:31:50;;;;;;;20.27;18.27;;;;;;;;;;4993633;28;20991;-52
2021/06/24 07:34:16;;;;;;;21.50;17.10;;;;;;;;;;4993076;28;20408;-51
2021/06/24 07:36:42;;;;;;;22.23;16.97;;;;;;;;;;4992795;28;20450;-51
2021/06/24 07:39:08;;;;;;;22.07;16.77;;;;;;;;;;4993270;28;20440;-51
2021/06/24 07:41:34;;;;;;;24.60;17.87;;;;;;;;;;4993189;28;20374;-52
2021/06/24 07:44:00;;;;;;;22.77;15.93;;;;;;;;;;4992966;28;20450;-51
2021/06/24 07:46:27;;;;;;;23.10;17.17;;;;;;;;;;4992376;28;20859;-51
2021/06/24 07:48:53;;;;;;;21.43;16.97;;;;;;;;;;4992845;28;20897;-52
2021/06/24 07:51:19;;;;;;;22.03;16.27;;;;;;;;;;4992644;28;20943;-51
2021/06/24 07:53:45;;;;;;;20.10;18.00;;;;;;;;;;4992447;28;21127;-52
2021/06/24 07:56:13;;;;;;;22.33;17.63;;;;;;;;;;4992522;28;20390;-51
2021/06/24 07:58:39;;;;;;;23.20;17.67;;;;;;;;;;4993007;28;20784;-51
2021/06/24 08:01:05;;;;;;;20.33;18.33;;;;;;;;;;4992654;28;20443;-51
2021/06/24 08:03:32;;;;;;;21.37;18.70;;;;;;;;;;4992503;28;20428;-52
2021/06/24 08:05:58;;;;;;;27.63;17.90;;;;;;;;;;4992458;28;20404;-52
2021/06/24 08:08:24;;;;;;;25.53;17.17;;;;;;;;;;4991770;28;20408;-52
2021/06/24 08:10:50;;;;;;;28.37;19.53;;;;;;;;;;4973430;28;20442;-51
2021/06/24 08:13:16;;;;;;;22.93;19.30;;;;;;;;;;4986912;28;20998;-51
2021/06/24 08:15:42;;;;;;;27.97;17.53;;;;;;;;;;4991905;28;20424;-51
2021/06/24 08:18:08;;;;;;;21.30;16.80;;;;;;;;;;4991679;28;20859;-51
2021/06/24 08:20:34;;;;;;;28.73;20.43;;;;;;;;;;4992886;28;20468;-52
2021/06/24 08:23:00;;;;;;;22.10;18.43;;;;;;;;;;4992513;28;20430;-51
2021/06/24 08:25:26;;;;;;;27.40;18.70;;;;;;;;;;4991903;28;20400;-51
2021/06/24 08:27:52;;;;;;;25.20;19.60;;;;;;;;;;4992016;28;20396;-51
2021/06/24 08:30:18;;;;;;;20.50;18.27;;;;;;;;;;4991767;28;20426;-52
2021/06/24 08:32:45;;;;;;;21.67;19.53;;;;;;;;;;4989439;28;20510;-52
2021/06/24 08:35:11;;;;;;;26.03;20.30;;;;;;;;;;4991046;28;20371;-52
2021/06/24 08:37:38;;;;;;;21.07;17.67;;;;;;;;;;4991863;28;20406;-52
2021/06/24 08:40:05;;;;;;;22.63;18.50;;;;;;;;;;4991720;28;20454;-52
2021/06/24 08:42:32;;;;;;;19.07;17.20;;;;;;;;;;4991753;28;20424;-52
2021/06/24 08:45:01;;;;;;;20.27;18.10;;;;;;;;;;4991495;28;20400;-52
2021/06/24 08:47:27;;;;;;;19.47;16.13;;;;;;;;;;4991673;28;20419;-52
2021/06/24 08:49:55;;;;;;;22.07;16.17;;;;;;;;;;4991567;28;20451;-52
2021/06/24 08:52:21;;;;;;;23.70;16.87;;;;;;;;;;4991733;28;20837;-51
2021/06/24 08:54:47;;;;;;;24.83;18.20;;;;;;;;;;4991741;28;20404;-51
2021/06/24 08:57:14;;;;;;;19.90;16.53;;;;;;;;;;4991711;28;20403;-52
2021/06/24 08:59:40;;;;;;;22.03;16.37;;;;;;;;;;4991489;28;20471;-51
2021/06/24 09:02:10;;;;;;;23.83;17.50;;;;;;;;;;4991371;28;20420;-52
2021/06/24 09:04:39;;;;;;;20.97;18.37;;;;;;;;;;4991592;28;20411;-51
2021/06/24 09:07:10;;;;;;;19.80;17.43;;;;;;;;;;4991236;28;20830;-51
2021/06/24 09:09:37;;;;;;;18.33;16.40;;;;;;;;;;4991950;28;20470;-51
2021/06/24 09:12:05;;;;;;;24.23;16.37;;;;;;;;;;4991114;28;20516;-52
2021/06/24 09:14:38;;;;;;;18.23;16.40;;;;;;;;;;4991352;28;20412;-53
2021/06/24 09:17:04;;;;;;;28.27;16.93;;;;;;;;;;4991178;28;20916;-51
2021/06/24 09:19:30;;;;;;;20.27;15.10;;;;;;;;;;4991415;28;20463;-52
2021/06/24 09:21:56;;;;;;;17.20;14.50;;;;;;;;;;4991218;28;20831;-52
2021/06/24 09:24:22;;;;;;;17.40;14.67;;;;;;;;;;4991281;28;20400;-52
2021/06/24 09:26:48;;;;;;;23.47;16.50;;;;;;;;;;4991100;28;20774;-51
2021/06/24 09:29:15;;;;;;;16.70;15.10;;;;;;;;;;4991540;28;20435;-52
2021/06/24 09:31:43;;;;;;;21.57;15.17;;;;;;;;;;4991421;28;20471;-53
2021/06/24 09:34:10;;;;;;;21.07;15.93;;;;;;;;;;4991269;28;20830;-51
2021/06/24 09:36:37;;;;;;;15.50;13.87;;;;;;;;;;4992440;28;20547;-51
2021/06/24 09:39:04;;;;;;;20.63;14.70;;;;;;;;;;4995213;28;20904;-52
2021/06/24 09:41:30;;;;;;;16.57;15.00;;;;;;;;;;4995132;28;20437;-52
2021/06/24 09:43:56;;;;;;;16.97;15.00;;;;;;;;;;4995395;28;20396;-51
2021/06/24 09:46:26;;;;;;;18.63;16.70;;;;;;;;;;4995127;28;20526;-51
2021/06/24 09:48:58;;;;;;;23.07;17.07;;;;;;;;;;4995142;28;20896;-51
2021/06/24 09:51:32;;;;;;;17.47;15.70;;;;;;;;;;4995122;28;20404;-51
2021/06/24 09:54:15;;;;;;;17.70;15.80;;;;;;;;;;4995026;28;20573;-51
2021/06/24 09:56:45;;;;;;;18.90;17.00;;;;;;;;;;4995259;28;20486;-51
2021/06/24 09:59:15;;;;;;;17.67;15.90;;;;;;;;;;4995017;28;20403;-51
2021/06/24 10:01:45;;;;;;;21.53;17.37;;;;;;;;;;4994920;28;20416;-55
2021/06/24 10:04:28;;;;;;;23.53;18.73;;;;;;;;;;4994744;28;20396;-51
2021/06/24 10:06:55;;;;;;;20.30;17.67;;;;;;;;;;4994725;28;20395;-51
2021/06/24 10:09:22;;;;;;;21.27;18.87;;;;;;;;;;4994729;28;20427;-55
2021/06/24 10:11:48;;;;;;;20.03;16.90;;;;;;;;;;4994767;28;20502;-53
2021/06/24 10:14:15;;;;;;;18.13;15.90;;;;;;;;;;4994478;28;20400;-51
2021/06/24 10:16:44;;;;;;;20.47;18.07;;;;;;;;;;4994483;28;20494;-51
2021/06/24 10:19:11;;;;;;;20.77;18.30;;;;;;;;;;4994605;28;20406;-52
2021/06/24 10:21:38;;;;;;;18.23;16.40;;;;;;;;;;4994719;28;20799;-52
2021/06/24 10:24:09;;;;;;;19.73;16.17;;;;;;;;;;4994376;28;20483;-52
2021/06/24 10:26:38;;;;;;;21.53;17.23;;;;;;;;;;4994331;28;20388;-52
2021/06/24 10:29:19;;;;;;;18.70;16.40;;;;;;;;;;4992862;28;20777;-53
2021/06/24 10:31:48;;;;;;;21.60;17.50;;;;;;;;;;4994677;28;20888;-52
2021/06/24 10:34:15;;;;;;;25.63;18.87;;;;;;;;;;4994198;28;20424;-51
2021/06/24 10:37:01;;;;;;;19.77;17.67;;;;;;;;;;4993549;28;20439;-51
2021/06/24 10:39:36;;;;;;;20.57;18.60;;;;;;;;;;4992615;28;20550;-51
2021/06/24 10:42:02;;;;;;;20.90;18.00;;;;;;;;;;5000324;28;20428;-51
2021/06/24 10:44:46;;;;;;;23.17;18.33;;;;;;;;;;5010412;28;20526;-51
2021/06/24 10:47:13;;;;;;;22.33;18.50;;;;;;;;;;4994162;28;20466;-51
2021/06/24 10:49:39;;;;;;;25.63;18.93;;;;;;;;;;4993490;28;20408;-51
2021/06/24 10:52:27;;;;;;;21.27;18.97;;;;;;;;;;4993384;28;20526;-52
2021/06/24 10:54:54;;;;;;;20.83;17.20;;;;;;;;;;4984068;28;20424;-52
2021/06/24 10:57:33;;;;;;;23.07;18.30;;;;;;;;;;4981995;28;20980;-51
2021/06/24 11:00:18;;;;;;;21.70;16.53;;;;;;;;;;4974270;28;20823;-51
2021/06/24 11:02:47;;;;;;;24.73;18.93;;;;;;;;;;4981988;28;20905;-52
2021/06/24 11:05:18;;;;;;;21.80;19.70;;;;;;;;;;4982972;28;20896;-51
2021/06/24 11:07:45;;;;;;;20.50;17.40;;;;;;;;;;4981843;28;20509;-51
2021/06/24 11:10:14;;;;;;;21.97;17.70;;;;;;;;;;4979699;28;20411;-51
2021/06/24 11:12:56;;;;;;;20.50;18.40;;;;;;;;;;4990345;28;20437;-53
2021/06/24 11:15:41;;;;;;;21.70;18.73;;;;;;;;;;4993567;28;20929;-51
2021/06/24 11:18:07;;;;;;;21.13;18.60;;;;;;;;;;4974066;28;20429;-52
2021/06/24 11:20:42;;;;;;;19.77;17.80;;;;;;;;;;4984396;28;20499;-52
2021/06/24 11:23:28;;;;;;;19.43;17.40;;;;;;;;;;4988478;28;20493;-52
2021/06/24 11:26:03;;;;;;;20.80;18.73;;;;;;;;;;4992916;28;20408;-52
2021/06/24 11:28:42;;;;;;;21.77;18.57;;;;;;;;;;4993492;28;20962;-52
2021/06/24 11:31:08;;;;;;;18.43;16.53;;;;;;;;;;4993365;28;20400;-52
2021/06/24 11:33:39;;;;;;;21.77;15.87;;;;;;;;;;4979720;28;20489;-53
2021/06/24 11:36:17;;;;;;;20.97;16.00;;;;;;;;;;4981957;28;20503;-52
2021/06/24 11:38:47;;;;;;;18.30;16.37;;;;;;;;;;4986991;28;20416;-52
2021/06/24 11:41:13;;;;;;;20.33;18.30;;;;;;;;;;5009978;28;20988;-53
2021/06/24 11:43:40;;;;;;;17.27;15.67;;;;;;;;;;5005780;28;20435;-52
2021/06/24 11:46:06;;;;;;;17.80;16.00;;;;;;;;;;4988008;28;20924;-52
2021/06/24 11:48:32;;;;;;;20.00;15.97;;;;;;;;;;4992819;28;20412;-53
2021/06/24 12:05:06;;;;;;;21.40;19.30;;;;;;;;;;4954593;28;20386;-50
2021/06/24 12:07:35;;;;;;;20.53;18.47;;;;;;;;;;4971078;28;20801;-51
2021/06/24 12:10:01;;;;;;;21.27;19.17;;;;;;;;;;4971435;28;20416;-50
2021/06/24 12:12:29;;;;;;;24.77;17.70;;;;;;;;;;4971064;28;20468;-51
2021/06/24 12:14:57;;;;;;;18.93;16.87;;;;;;;;;;4971246;28;20405;-50
2021/06/24 12:17:24;;;;;;;21.33;18.97;;;;;;;;;;4970914;28;20436;-51
2021/06/24 12:19:57;;;;;;;21.33;19.53;;;;;;;;;;4972586;28;20468;-52
2021/06/24 12:22:32;;;;;;;22.90;19.43;;;;;;;;;;4972702;28;20523;-51
2021/06/24 12:24:59;;;;;;;25.00;20.77;;;;;;;;;;4981806;28;20401;-53
2021/06/24 12:27:25;;;;;;;25.47;19.50;;;;;;;;;;4981182;28;20779;-52
2021/06/24 12:29:52;;;;;;;22.03;19.77;;;;;;;;;;4983072;28;20491;-50
2021/06/24 12:32:18;;;;;;;23.13;20.80;;;;;;;;;;4985919;28;20429;-50
2021/06/24 12:34:44;;;;;;;24.20;21.67;;;;;;;;;;4971201;28;20432;-50
2021/06/24 12:37:10;;;;;;;24.27;21.77;;;;;;;;;;4970454;28;20409;-50
2021/06/24 12:39:37;;;;;;;22.47;20.30;;;;;;;;;;4970792;28;20467;-51
2021/06/24 12:42:04;;;;;;;23.97;21.43;;;;;;;;;;4970767;28;20476;-52
2021/06/24 12:44:35;;;;;;;22.87;20.70;;;;;;;;;;4970651;28;20484;-52
2021/06/24 12:47:01;;;;;;;21.03;19.03;;;;;;;;;;4970814;28;20455;-52
2021/06/24 12:49:27;;;;;;;21.80;19.60;;;;;;;;;;4971540;28;20909;-53
2021/06/24 12:51:53;;;;;;;22.83;20.67;;;;;;;;;;4972357;28;20885;-50
2021/06/24 12:54:22;;;;;;;22.20;19.73;;;;;;;;;;4972175;28;21093;-50
2021/06/24 12:56:49;;;;;;;20.93;18.00;;;;;;;;;;4972123;28;20968;-50
2021/06/24 12:59:21;;;;;;;25.90;19.10;;;;;;;;;;4972092;28;20464;-50
2021/06/24 13:01:48;;;;;;;21.73;19.23;;;;;;;;;;4972291;28;20409;-50
2021/06/24 13:04:16;;;;;;;25.43;19.50;;;;;;;;;;4972194;28;20440;-50
2021/06/24 13:06:45;;;;;;;20.40;18.40;;;;;;;;;;4972094;28;20397;-49
2021/06/24 13:09:15;;;;;;;21.53;18.20;;;;;;;;;;4972084;28;20404;-51
2021/06/24 13:11:53;;;;;;;23.77;17.77;;;;;;;;;;4971720;28;20980;-50
2021/06/24 13:14:22;;;;;;;19.73;17.80;;;;;;;;;;4971904;28;20425;-50
2021/06/24 13:16:49;;;;;;;20.70;18.53;;;;;;;;;;4971956;28;20389;-50
2021/06/24 13:19:24;;;;;;;21.57;18.67;;;;;;;;;;4971934;28;20397;-50
2021/06/24 13:21:58;;;;;;;21.27;17.83;;;;;;;;;;4971975;28;20416;-50
2021/06/24 13:24:25;;;;;;;18.23;16.10;;;;;;;;;;4971826;28;20412;-53
2021/06/24 13:26:52;;;;;;;17.17;15.50;;;;;;;;;;4971798;28;20408;-52
2021/06/24 13:29:19;;;;;;;20.67;17.07;;;;;;;;;;4971880;28;20401;-50
2021/06/24 13:31:45;;;;;;;19.13;17.17;;;;;;;;;;4971974;28;20436;-50
2021/06/24 13:34:15;;;;;;;17.43;15.67;;;;;;;;;;4972402;28;20412;-53
2021/06/24 13:36:42;;;;;;;16.40;14.70;;;;;;;;;;4971603;28;20404;-50
2021/06/24 13:39:09;;;;;;;16.90;15.10;;;;;;;;;;4972003;28;20855;-52
2021/06/24 13:41:36;;;;;;;19.43;14.90;;;;;;;;;;4972033;28;20448;-50
2021/06/24 13:44:06;;;;;;;17.00;15.23;;;;;;;;;;4972003;28;20390;-50
2021/06/24 13:46:32;;;;;;;19.87;17.97;;;;;;;;;;4971588;28;20397;-54
2021/06/24 13:48:58;;;;;;;19.93;17.87;;;;;;;;;;4971870;28;20426;-54
2021/06/24 13:51:24;;;;;;;19.63;17.20;;;;;;;;;;4971938;28;20401;-52
2021/06/24 13:53:58;;;;;;;18.80;17.07;;;;;;;;;;4971692;28;20427;-54
2021/06/24 13:56:23;;;;;;;16.70;15.00;;;;;;;;;;4971556;28;20416;-50
2021/06/24 13:58:49;;;;;;;17.70;15.50;;;;;;;;;;4971652;28;20412;-50
2021/06/24 14:01:15;;;;;;;18.77;16.90;;;;;;;;;;4971465;28;20527;-50
2021/06/24 14:03:43;;;;;;;18.60;17.00;;;;;;;;;;4971459;28;20457;-50
2021/06/24 14:06:09;;;;;;;18.77;16.83;;;;;;;;;;4971440;28;20413;-51
2021/06/24 14:08:36;;;;;;;18.90;16.23;;;;;;;;;;4971616;28;20952;-50
2021/06/24 14:11:02;;;;;;;19.77;17.40;;;;;;;;;;4971634;28;20881;-50
2021/06/24 14:13:28;;;;;;;18.53;16.63;;;;;;;;;;4971402;28;20504;-50
2021/06/24 14:15:54;;;;;;;17.40;15.13;;;;;;;;;;4971378;28;20407;-50
2021/06/24 14:18:20;;;;;;;20.40;16.30;;;;;;;;;;4971341;28;20396;-50
2021/06/24 14:20:46;;;;;;;16.93;15.33;;;;;;;;;;4971404;28;20463;-50
2021/06/24 14:23:14;;;;;;;17.63;16.00;;;;;;;;;;4973326;28;20429;-52
2021/06/24 14:25:39;;;;;;;17.60;15.80;;;;;;;;;;4975220;28;20401;-50
2021/06/24 14:28:05;;;;;;;21.27;19.00;;;;;;;;;;4974773;28;20404;-50
2021/06/24 14:30:31;;;;;;;17.83;16.00;;;;;;;;;;4974801;28;20419;-51